Time;durP1;ratioP1;P1;durP2;ratioP2;P2;SDS_P1;SDS_P2;PMS_P1;PMS_P2;Temp;Humidity;BMP_temperature;BMP_pressure;BME280_temperature;BME280_humidity;BME280_pressure;Samples;Min_cycle;Max_cycle;Signal;HPM_P1;HPM_P2
2024/03/08 00:01:12;;;;;;;26.73;24.63;;;9.20;19.80;;;;;;4948947;29;20408;-79
2024/03/08 00:03:40;;;;;;;28.33;26.03;;;9.30;19.60;;;;;;4944447;29;20184;-79
2024/03/08 00:06:05;;;;;;;25.20;23.50;;;9.30;19.40;;;;;;4949229;29;20204;-79
2024/03/08 00:08:34;;;;;;;27.27;25.17;;;9.30;19.50;;;;;;4945860;29;20464;-79
2024/03/08 00:10:59;;;;;;;25.83;24.00;;;9.30;19.40;;;;;;4940403;29;20180;-80
2024/03/08 00:13:25;;;;;;;25.73;23.93;;;9.40;19.40;;;;;;4949564;29;20865;-80
2024/03/08 00:15:51;;;;;;;25.97;23.87;;;9.30;19.60;;;;;;4951665;29;20190;-80
2024/03/08 00:18:16;;;;;;;27.73;25.83;;;9.30;19.50;;;;;;4950852;29;20637;-80
2024/03/08 00:20:43;;;;;;;26.07;24.27;;;9.20;19.50;;;;;;4944899;29;20180;-78
2024/03/08 00:23:10;;;;;;;26.10;24.20;;;9.20;19.90;;;;;;4948523;29;20200;-80
2024/03/08 00:25:36;;;;;;;26.00;24.10;;;9.10;19.40;;;;;;4954058;28;20470;-80
2024/03/08 00:28:01;;;;;;;26.17;24.27;;;9.00;19.80;;;;;;4948220;29;20440;-79
2024/03/08 00:30:27;;;;;;;26.80;24.90;;;8.90;19.60;;;;;;4959296;29;20187;-80
2024/03/08 00:32:52;;;;;;;28.13;25.83;;;8.80;19.80;;;;;;4945767;29;20183;-79
2024/03/08 00:35:18;;;;;;;27.70;25.50;;;8.70;20.50;;;;;;4955427;29;20191;-80
2024/03/08 00:37:46;;;;;;;25.67;23.67;;;8.60;20.30;;;;;;4947800;29;20223;-79
2024/03/08 00:40:12;;;;;;;25.87;23.87;;;8.40;20.60;;;;;;4949497;29;20176;-80
2024/03/08 00:42:39;;;;;;;26.57;24.57;;;8.30;21.40;;;;;;4958624;28;20911;-80
2024/03/08 00:45:05;;;;;;;27.70;25.70;;;8.20;21.80;;;;;;4942842;28;20192;-80
2024/03/08 00:47:31;;;;;;;25.73;23.77;;;8.20;21.80;;;;;;4952093;29;20439;-80
2024/03/08 00:49:57;;;;;;;25.37;23.47;;;8.30;21.50;;;;;;4957446;29;20434;-80
2024/03/08 00:52:24;;;;;;;25.87;23.87;;;8.50;21.20;;;;;;4942775;28;20214;-80
2024/03/08 00:54:57;;;;;;;27.67;25.60;;;8.70;20.60;;;;;;4949746;29;20946;-80
2024/03/08 00:57:22;;;;;;;26.87;24.87;;;8.80;20.30;;;;;;4940575;28;20447;-80
2024/03/08 00:59:48;;;;;;;28.83;26.30;;;8.90;20.00;;;;;;4953199;29;20437;-80
2024/03/08 01:02:14;;;;;;;26.43;24.53;;;8.90;19.80;;;;;;4955171;29;20566;-79
2024/03/08 01:04:39;;;;;;;26.90;24.90;;;9.00;19.70;;;;;;4947518;29;20203;-79
2024/03/08 01:07:05;;;;;;;25.37;23.57;;;9.00;19.40;;;;;;4939657;29;20430;-80
2024/03/08 01:09:31;;;;;;;27.03;25.03;;;9.00;19.40;;;;;;4939715;29;20184;-81
2024/03/08 01:11:59;;;;;;;24.67;22.83;;;8.90;19.40;;;;;;4945908;29;20197;-80
2024/03/08 01:14:31;;;;;;;25.67;23.70;;;8.90;19.40;;;;;;4950512;28;20426;-81
2024/03/08 01:16:56;;;;;;;25.27;23.40;;;8.90;19.20;;;;;;4950924;28;20422;-81
2024/03/08 01:19:23;;;;;;;25.63;23.73;;;9.00;19.20;;;;;;4958669;29;20454;-80
2024/03/08 01:21:49;;;;;;;27.57;25.40;;;9.00;19.20;;;;;;4951404;29;20275;-80
2024/03/08 01:24:14;;;;;;;26.60;24.50;;;8.90;19.00;;;;;;4945898;29;20456;-80
2024/03/08 01:26:40;;;;;;;26.63;24.67;;;8.90;19.20;;;;;;4939238;29;20199;-81
2024/03/08 01:29:11;;;;;;;25.80;23.90;;;8.90;19.10;;;;;;4947689;29;20192;-80
2024/03/08 01:31:37;;;;;;;26.97;24.93;;;8.90;19.10;;;;;;4952641;29;20172;-81
2024/03/08 01:34:03;;;;;;;28.13;26.00;;;8.90;19.10;;;;;;4947046;29;20487;-80
2024/03/08 01:36:28;;;;;;;28.10;25.87;;;8.90;19.00;;;;;;4938674;29;20207;-80
2024/03/08 01:38:54;;;;;;;26.50;24.50;;;8.90;19.00;;;;;;4938091;29;20200;-81
2024/03/08 01:41:19;;;;;;;28.17;26.17;;;8.90;18.90;;;;;;4947768;29;20173;-80
2024/03/08 01:43:50;;;;;;;28.27;26.20;;;8.80;18.90;;;;;;4956701;29;20315;-80
2024/03/08 01:46:18;;;;;;;27.40;25.17;;;8.80;19.00;;;;;;4949035;29;20246;-80
2024/03/08 01:48:44;;;;;;;26.23;24.43;;;8.70;19.20;;;;;;4956879;29;20442;-80
2024/03/08 01:51:12;;;;;;;25.57;23.60;;;8.70;19.20;;;;;;4941940;28;20416;-80
2024/03/08 01:53:38;;;;;;;25.80;24.00;;;8.70;19.20;;;;;;4946848;29;20404;-80
2024/03/08 01:56:05;;;;;;;26.17;24.07;;;8.60;19.20;;;;;;4947441;29;20423;-81
2024/03/08 01:58:32;;;;;;;26.40;24.50;;;8.60;19.20;;;;;;4950535;29;20862;-80
2024/03/08 02:00:59;;;;;;;26.50;24.60;;;8.60;19.30;;;;;;4951627;28;20431;-81
2024/03/08 02:03:25;;;;;;;25.40;23.63;;;8.50;19.20;;;;;;4945008;29;20416;-81
2024/03/08 02:05:54;;;;;;;27.47;25.27;;;8.50;19.20;;;;;;4956101;29;20540;-80
2024/03/08 02:08:22;;;;;;;26.40;24.60;;;8.50;19.20;;;;;;4951971;29;20217;-80
2024/03/08 02:10:49;;;;;;;24.33;22.63;;;8.60;19.10;;;;;;4954825;28;20427;-81
2024/03/08 02:13:14;;;;;;;27.30;25.20;;;8.60;19.10;;;;;;4954240;29;20428;-81
2024/03/08 02:15:53;;;;;;;25.77;23.83;;;8.50;19.00;;;;;;4944637;29;20795;-81
2024/03/08 02:18:19;;;;;;;24.63;22.73;;;8.50;19.10;;;;;;4957681;28;20245;-81
2024/03/08 02:20:47;;;;;;;25.40;23.60;;;8.50;18.90;;;;;;4944283;29;20423;-80
2024/03/08 02:23:19;;;;;;;26.60;24.70;;;8.50;19.00;;;;;;4948718;29;20423;-80
2024/03/08 02:25:46;;;;;;;25.10;23.20;;;8.50;19.10;;;;;;4952976;29;20459;-81
2024/03/08 02:28:12;;;;;;;26.50;24.20;;;8.40;19.40;;;;;;4941542;28;20443;-81
2024/03/08 02:30:38;;;;;;;26.00;24.00;;;8.40;19.20;;;;;;4950247;29;20429;-81
2024/03/08 02:33:05;;;;;;;25.97;24.17;;;8.40;19.30;;;;;;4948658;29;20415;-81
2024/03/08 02:35:30;;;;;;;25.90;24.00;;;8.40;19.00;;;;;;4956010;28;20835;-80
2024/03/08 02:37:56;;;;;;;27.50;25.37;;;8.40;19.00;;;;;;4946949;29;20481;-80
2024/03/08 02:40:25;;;;;;;28.00;25.70;;;8.40;19.00;;;;;;4963835;29;20176;-79
2024/03/08 02:42:51;;;;;;;27.37;25.53;;;8.40;19.00;;;;;;4957657;29;20180;-80
2024/03/08 02:45:17;;;;;;;25.80;23.80;;;8.40;19.10;;;;;;4957265;29;20446;-79
2024/03/08 02:47:42;;;;;;;25.33;23.50;;;8.40;19.00;;;;;;4972311;28;20227;-80
2024/03/08 02:50:08;;;;;;;25.77;23.73;;;8.40;18.90;;;;;;4983030;28;20187;-81
2024/03/08 02:52:35;;;;;;;25.93;24.13;;;8.40;18.80;;;;;;4974101;28;20188;-80
2024/03/08 02:55:01;;;;;;;24.83;23.03;;;8.40;18.80;;;;;;4974191;28;20176;-80
2024/03/08 02:57:27;;;;;;;24.23;22.43;;;8.40;18.80;;;;;;4963142;28;20444;-81
2024/03/08 02:59:53;;;;;;;25.57;23.63;;;8.40;18.90;;;;;;4946958;29;20591;-80
2024/03/08 03:02:19;;;;;;;24.50;22.70;;;8.30;18.80;;;;;;4947247;29;20188;-79
2024/03/08 03:04:44;;;;;;;24.83;23.10;;;8.30;18.80;;;;;;4953558;29;20582;-78
2024/03/08 03:07:11;;;;;;;25.00;23.17;;;8.30;18.80;;;;;;4946785;29;20183;-78
2024/03/08 03:09:36;;;;;;;26.80;24.80;;;8.30;19.00;;;;;;4950708;29;20175;-78
2024/03/08 03:12:02;;;;;;;26.07;24.07;;;8.40;18.80;;;;;;4957705;28;20974;-79
2024/03/08 03:14:28;;;;;;;24.47;22.60;;;8.30;19.00;;;;;;4949080;29;20462;-79
2024/03/08 03:16:54;;;;;;;26.40;24.37;;;8.30;18.90;;;;;;4958698;29;20223;-79
2024/03/08 03:19:20;;;;;;;24.93;23.10;;;8.20;18.70;;;;;;5032479;23;20244;-81
2024/03/08 03:21:45;;;;;;;24.87;23.17;;;8.20;18.70;;;;;;5008940;28;20433;-81
2024/03/08 03:24:12;;;;;;;24.13;22.43;;;8.30;18.80;;;;;;5008183;28;20529;-81
2024/03/08 03:26:40;;;;;;;22.47;20.97;;;8.30;18.70;;;;;;5020525;28;20301;-81
2024/03/08 03:29:08;;;;;;;23.23;21.53;;;8.20;18.80;;;;;;5000446;28;20445;-82
2024/03/08 03:31:36;;;;;;;25.13;23.43;;;8.20;18.80;;;;;;5001476;28;20829;-82
2024/03/08 03:34:03;;;;;;;25.57;23.77;;;8.10;19.80;;;;;;5001553;28;20432;-82
2024/03/08 03:36:30;;;;;;;25.20;23.40;;;8.20;18.90;;;;;;5001185;28;20814;-82
2024/03/08 03:39:12;;;;;;;24.20;22.30;;;8.20;19.30;;;;;;5006072;28;20453;-82
2024/03/08 03:41:38;;;;;;;25.50;23.60;;;8.20;19.00;;;;;;5023548;28;20532;-81
2024/03/08 03:44:08;;;;;;;22.70;21.20;;;8.20;18.40;;;;;;5032658;28;20519;-80
2024/03/08 03:46:34;;;;;;;25.33;23.63;;;8.20;19.10;;;;;;5030505;28;20432;-81
2024/03/08 03:48:59;;;;;;;24.03;22.23;;;8.20;18.70;;;;;;5030831;28;20478;-82
2024/03/08 03:51:25;;;;;;;23.40;21.70;;;8.10;18.80;;;;;;5033127;28;20257;-81
2024/03/08 03:53:52;;;;;;;24.63;22.83;;;8.10;18.90;;;;;;5034712;28;20372;-81
2024/03/08 03:56:18;;;;;;;23.57;21.87;;;8.20;18.80;;;;;;5035181;28;20432;-81
2024/03/08 03:58:44;;;;;;;23.40;21.80;;;8.20;18.40;;;;;;5035054;28;20446;-82
2024/03/08 04:01:09;;;;;;;25.27;23.37;;;8.10;18.90;;;;;;5034808;28;20181;-82
2024/03/08 04:03:35;;;;;;;23.30;21.70;;;8.00;18.80;;;;;;5033839;28;20244;-81
2024/03/08 04:06:02;;;;;;;24.50;22.80;;;8.00;19.70;;;;;;5034399;28;20264;-81
2024/03/08 04:08:27;;;;;;;25.83;23.93;;;8.10;18.50;;;;;;5016859;28;20449;-81
2024/03/08 04:10:53;;;;;;;24.70;22.93;;;8.10;18.60;;;;;;5014318;28;20520;-81
2024/03/08 04:13:20;;;;;;;22.97;21.47;;;8.10;18.40;;;;;;5014397;28;20194;-81
2024/03/08 04:15:48;;;;;;;24.10;22.50;;;8.20;18.10;;;;;;5016340;28;20221;-81
2024/03/08 04:18:13;;;;;;;24.70;22.97;;;8.20;18.00;;;;;;5016240;28;20468;-81
2024/03/08 04:20:40;;;;;;;26.40;24.50;;;8.30;17.80;;;;;;5033858;28;20463;-81
2024/03/08 04:23:06;;;;;;;24.30;22.67;;;8.20;18.20;;;;;;5033770;28;20181;-82
2024/03/08 04:25:31;;;;;;;24.77;22.87;;;8.20;18.20;;;;;;5032243;28;20474;-83
2024/03/08 04:27:56;;;;;;;25.60;23.80;;;8.20;18.60;;;;;;5013881;28;20229;-81
2024/03/08 04:30:22;;;;;;;24.50;22.80;;;8.30;17.90;;;;;;5014448;28;20173;-81
2024/03/08 04:32:48;;;;;;;25.70;24.00;;;8.10;18.10;;;;;;5012906;28;20197;-82
2024/03/08 04:35:15;;;;;;;26.10;24.10;;;8.20;18.10;;;;;;5013199;28;20229;-82
2024/03/08 04:37:40;;;;;;;25.27;23.43;;;8.30;17.70;;;;;;5017018;28;20436;-82
2024/03/08 04:40:07;;;;;;;25.57;23.77;;;8.50;17.50;;;;;;5019394;28;20425;-81
2024/03/08 04:42:33;;;;;;;26.53;24.77;;;8.60;17.20;;;;;;5015023;28;20182;-82
2024/03/08 04:44:59;;;;;;;26.00;24.20;;;8.70;16.90;;;;;;5013057;28;20476;-82
2024/03/08 04:47:28;;;;;;;24.83;23.03;;;8.70;16.70;;;;;;5011422;28;20460;-82
2024/03/08 04:49:54;;;;;;;26.30;24.40;;;8.70;16.60;;;;;;5011679;28;20528;-82
2024/03/08 04:52:21;;;;;;;26.10;24.27;;;8.70;16.50;;;;;;5010532;28;20428;-82
2024/03/08 04:54:47;;;;;;;24.93;23.23;;;8.70;16.60;;;;;;5010361;28;20471;-82
2024/03/08 04:57:13;;;;;;;24.93;23.13;;;8.70;16.70;;;;;;5012399;28;20425;-81
2024/03/08 04:59:38;;;;;;;24.80;23.10;;;8.60;16.60;;;;;;5029581;28;20224;-82
2024/03/08 05:02:04;;;;;;;25.47;23.77;;;8.70;16.80;;;;;;5030072;28;20192;-82
2024/03/08 05:04:29;;;;;;;24.83;23.03;;;8.50;17.20;;;;;;5029702;28;20232;-82
2024/03/08 05:06:55;;;;;;;26.70;24.70;;;8.40;17.00;;;;;;5029952;28;20181;-82
2024/03/08 05:09:21;;;;;;;25.20;23.30;;;8.20;17.30;;;;;;5029748;28;20201;-82
2024/03/08 05:11:47;;;;;;;25.50;23.60;;;8.10;17.50;;;;;;5028246;28;20235;-82
2024/03/08 05:14:16;;;;;;;25.27;23.17;;;8.20;18.10;;;;;;5029135;28;20184;-81
2024/03/08 05:16:48;;;;;;;25.63;23.80;;;8.10;17.70;;;;;;5017212;28;20452;-81
2024/03/08 05:19:16;;;;;;;25.90;24.10;;;8.10;18.10;;;;;;5025770;28;20535;-82
2024/03/08 05:21:44;;;;;;;26.40;24.60;;;8.10;17.80;;;;;;5019547;28;20432;-81
2024/03/08 05:24:10;;;;;;;26.93;25.13;;;8.10;17.80;;;;;;5028604;28;20427;-82
2024/03/08 05:26:37;;;;;;;26.47;24.40;;;7.90;18.30;;;;;;5019920;28;20429;-82
2024/03/08 05:29:03;;;;;;;26.40;24.60;;;7.80;18.40;;;;;;5030417;28;21049;-82
2024/03/08 05:31:29;;;;;;;27.10;25.03;;;7.70;19.00;;;;;;5012613;28;20425;-81
2024/03/08 05:33:55;;;;;;;25.80;24.00;;;7.50;19.50;;;;;;5011309;28;20444;-81
2024/03/08 05:36:21;;;;;;;26.93;25.13;;;7.40;19.60;;;;;;5011021;28;20194;-82
2024/03/08 05:38:46;;;;;;;27.40;25.50;;;7.30;20.10;;;;;;5006194;28;20467;-81
2024/03/08 05:41:12;;;;;;;26.30;24.40;;;7.30;20.00;;;;;;5013085;28;20472;-82
2024/03/08 05:43:41;;;;;;;26.77;24.87;;;7.30;20.00;;;;;;5015566;28;20281;-81
2024/03/08 05:46:11;;;;;;;27.43;25.40;;;7.30;20.00;;;;;;5010484;28;20650;-81
2024/03/08 05:48:37;;;;;;;26.10;24.20;;;7.40;19.70;;;;;;5002857;28;20452;-82
2024/03/08 05:51:03;;;;;;;26.27;24.37;;;7.60;19.60;;;;;;5015194;28;20432;-82
2024/03/08 05:53:32;;;;;;;26.37;24.47;;;7.70;19.20;;;;;;5009172;28;20197;-81
2024/03/08 05:55:58;;;;;;;25.90;23.90;;;7.80;18.90;;;;;;5001346;28;20194;-82
2024/03/08 05:58:24;;;;;;;27.20;25.00;;;7.90;19.00;;;;;;4999070;28;20461;-82
2024/03/08 06:00:50;;;;;;;26.33;24.27;;;7.60;19.40;;;;;;4998938;28;20425;-81
2024/03/08 06:03:15;;;;;;;26.73;24.83;;;7.40;19.70;;;;;;4999078;28;20292;-81
2024/03/08 06:05:41;;;;;;;26.53;24.53;;;7.50;19.60;;;;;;5006296;28;20209;-81
2024/03/08 06:08:07;;;;;;;24.13;22.33;;;7.30;20.00;;;;;;5006359;28;20209;-81
2024/03/08 06:10:33;;;;;;;27.53;25.37;;;7.40;21.70;;;;;;5008471;28;20471;-82
2024/03/08 06:12:59;;;;;;;27.27;25.17;;;7.40;20.30;;;;;;5018280;28;20419;-82
2024/03/08 06:15:25;;;;;;;27.80;25.60;;;7.30;20.10;;;;;;5020577;28;20177;-82
2024/03/08 06:17:53;;;;;;;27.43;25.53;;;7.10;20.80;;;;;;5011595;28;20444;-82
2024/03/08 06:20:19;;;;;;;27.60;25.60;;;7.00;21.00;;;;;;5002670;28;20194;-83
2024/03/08 06:22:44;;;;;;;27.50;25.40;;;7.10;20.70;;;;;;5027327;28;20436;-82
2024/03/08 06:25:13;;;;;;;26.60;24.77;;;7.20;20.80;;;;;;5029578;28;20227;-82
2024/03/08 06:27:42;;;;;;;26.83;24.80;;;7.30;20.90;;;;;;5020403;28;20416;-83
2024/03/08 06:30:09;;;;;;;29.53;26.80;;;7.30;20.70;;;;;;5008466;28;20418;-82
2024/03/08 06:32:38;;;;;;;27.83;25.60;;;7.30;19.90;;;;;;5014643;28;20435;-82
2024/03/08 06:35:07;;;;;;;28.20;25.90;;;7.20;20.50;;;;;;5012305;28;20420;-82
2024/03/08 06:37:34;;;;;;;26.60;24.70;;;7.10;20.60;;;;;;5006005;28;20433;-82
2024/03/08 06:40:01;;;;;;;25.90;24.10;;;7.10;20.30;;;;;;5006905;28;20472;-82
2024/03/08 06:42:38;;;;;;;26.90;25.00;;;7.10;20.80;;;;;;5013021;28;20424;-83
2024/03/08 06:45:05;;;;;;;24.00;22.10;;;7.10;20.70;;;;;;5003056;28;20490;-82
2024/03/08 06:47:54;;;;;;;28.37;26.07;;;7.10;20.80;;;;;;5003015;28;20484;-82
2024/03/08 06:50:20;;;;;;;25.17;23.33;;;7.20;20.60;;;;;;5005307;28;20909;-82
2024/03/08 06:52:50;;;;;;;26.70;24.80;;;7.20;20.40;;;;;;5002670;28;20455;-82
2024/03/08 06:55:30;;;;;;;28.83;26.47;;;7.20;20.50;;;;;;5003436;28;20185;-83
2024/03/08 07:04:52;;;;;;;26.70;24.80;;;6.90;20.70;;;;;;5004999;28;20459;-83
2024/03/08 07:12:04;;;;;;;28.30;26.20;;;6.80;23.10;;;;;;4965221;28;20968;-83
2024/03/08 07:14:50;;;;;;;30.10;27.80;;;6.60;22.50;;;;;;4900917;29;20458;-82
2024/03/08 07:17:18;;;;;;;26.90;24.80;;;6.70;22.80;;;;;;4990913;28;20483;-84
2024/03/08 07:19:43;;;;;;;28.77;26.47;;;6.80;23.10;;;;;;4998209;28;20511;-83
2024/03/08 07:22:09;;;;;;;29.47;27.07;;;6.90;22.40;;;;;;5006030;28;20436;-83
2024/03/08 07:27:07;;;;;;;29.93;27.63;;;6.70;22.90;;;;;;5023375;28;20196;-83
2024/03/08 07:29:37;;;;;;;28.83;26.63;;;6.80;22.80;;;;;;5012632;28;20452;-85
2024/03/08 07:32:25;;;;;;;27.77;25.80;;;6.90;22.00;;;;;;5014536;28;20463;-84
2024/03/08 07:34:51;;;;;;;27.60;25.43;;;6.90;22.00;;;;;;5017417;28;20429;-84
2024/03/08 07:37:17;;;;;;;27.77;25.67;;;7.00;22.00;;;;;;5020217;28;20424;-84
2024/03/08 07:39:43;;;;;;;27.77;25.67;;;7.10;21.60;;;;;;5024812;28;20446;-84
2024/03/08 07:42:10;;;;;;;28.33;25.97;;;7.10;22.10;;;;;;5015713;28;20437;-84
2024/03/08 07:44:35;;;;;;;28.00;25.60;;;7.20;21.70;;;;;;5008968;28;20229;-83
2024/03/08 07:47:18;;;;;;;28.03;26.03;;;7.10;21.90;;;;;;5014103;28;20424;-84
2024/03/08 07:49:44;;;;;;;27.07;25.07;;;7.10;21.80;;;;;;5010825;28;20205;-84
2024/03/08 07:52:15;;;;;;;28.23;26.10;;;7.20;21.40;;;;;;5018146;28;20424;-84
2024/03/08 07:54:55;;;;;;;;;;;;;;;;;;;;;
2024/03/08 07:57:25;;;;;;;28.20;26.10;;;7.20;21.50;;;;;;5017360;28;20527;-82
2024/03/08 07:59:51;;;;;;;28.47;26.27;;;7.20;21.30;;;;;;5015778;28;20445;-84
2024/03/08 08:02:27;;;;;;;27.47;25.43;;;7.20;21.20;;;;;;5018408;28;20432;-82
2024/03/08 08:04:53;;;;;;;28.43;26.27;;;7.20;21.10;;;;;;5011014;28;20204;-82
2024/03/08 08:07:18;;;;;;;30.00;27.50;;;7.20;21.60;;;;;;5023998;28;20432;-83
2024/03/08 08:09:44;;;;;;;26.20;24.20;;;7.30;21.30;;;;;;5029539;28;20205;-82
2024/03/08 08:12:12;;;;;;;25.40;23.50;;;7.20;22.00;;;;;;5021853;28;20185;-82
2024/03/08 08:14:38;;;;;;;25.60;23.73;;;7.20;21.70;;;;;;5009414;28;20193;-82
2024/03/08 08:17:08;;;;;;;27.30;25.30;;;7.00;21.20;;;;;;5005773;28;20432;-80
2024/03/08 08:19:35;;;;;;;27.07;25.00;;;7.00;22.00;;;;;;5003178;28;20468;-80
2024/03/08 08:22:01;;;;;;;26.30;24.53;;;7.00;21.40;;;;;;5013169;28;20536;-80
2024/03/08 08:24:28;;;;;;;24.40;22.60;;;6.90;22.00;;;;;;5004282;28;20476;-81
2024/03/08 08:26:53;;;;;;;25.97;24.07;;;6.90;22.00;;;;;;5004108;28;20925;-79
2024/03/08 08:29:20;;;;;;;26.07;24.17;;;7.00;22.00;;;;;;5016444;28;20451;-81
2024/03/08 08:31:46;;;;;;;28.03;25.93;;;6.90;22.00;;;;;;5018813;28;20182;-81
2024/03/08 08:34:13;;;;;;;26.87;24.87;;;6.90;22.00;;;;;;5009722;28;20430;-81
2024/03/08 08:36:39;;;;;;;25.73;23.93;;;7.00;22.00;;;;;;5014126;28;20433;-81
2024/03/08 08:39:12;;;;;;;25.60;23.70;;;7.10;22.10;;;;;;5005269;28;20772;-81
2024/03/08 08:41:38;;;;;;;28.03;25.73;;;7.10;22.10;;;;;;5014409;28;20179;-80
2024/03/08 08:44:03;;;;;;;27.90;25.80;;;7.10;21.80;;;;;;5019456;28;20475;-81
2024/03/08 08:46:29;;;;;;;28.17;25.97;;;7.00;22.00;;;;;;5011625;28;20209;-81
2024/03/08 08:48:54;;;;;;;25.60;23.70;;;6.90;22.30;;;;;;5018673;28;20202;-81
2024/03/08 08:51:20;;;;;;;27.20;25.30;;;6.90;22.30;;;;;;5014422;28;20238;-81
2024/03/08 08:53:47;;;;;;;27.33;25.33;;;7.10;22.10;;;;;;5005296;28;20432;-82
2024/03/08 08:56:13;;;;;;;26.53;24.53;;;7.00;22.00;;;;;;5005946;28;20215;-81
2024/03/08 08:58:45;;;;;;;27.53;25.53;;;7.00;22.10;;;;;;5004824;28;20445;-81
2024/03/08 09:01:11;;;;;;;25.80;23.80;;;6.70;22.70;;;;;;5012005;28;20478;-81
2024/03/08 09:03:37;;;;;;;25.83;23.90;;;6.70;22.70;;;;;;5012142;28;20429;-82
2024/03/08 09:06:12;;;;;;;25.37;23.50;;;6.80;23.30;;;;;;5021258;28;20551;-81
2024/03/08 09:08:39;;;;;;;23.67;21.97;;;6.80;22.70;;;;;;5022798;28;20535;-80
2024/03/08 09:11:05;;;;;;;24.30;22.57;;;6.70;22.50;;;;;;5009949;28;20429;-81
2024/03/08 09:13:30;;;;;;;25.53;23.63;;;6.70;22.90;;;;;;5007195;28;20574;-80
2024/03/08 09:15:56;;;;;;;26.10;24.03;;;6.90;22.90;;;;;;5010733;28;20443;-82
2024/03/08 09:18:22;;;;;;;27.53;25.43;;;7.10;22.50;;;;;;5025913;23;20794;-77
2024/03/08 09:20:48;;;;;;;27.60;25.40;;;7.20;22.20;;;;;;4968385;28;20275;-78
2024/03/08 09:23:14;;;;;;;24.73;23.03;;;7.20;22.60;;;;;;4977401;28;20911;-81
2024/03/08 09:25:40;;;;;;;24.23;22.50;;;7.20;22.10;;;;;;4975823;28;20214;-80
2024/03/08 09:28:06;;;;;;;27.10;25.03;;;7.30;21.60;;;;;;4977103;28;20430;-77
2024/03/08 09:30:31;;;;;;;25.70;23.70;;;7.10;22.10;;;;;;4995713;28;20756;-78
2024/03/08 09:32:57;;;;;;;27.00;24.90;;;7.10;22.10;;;;;;4995363;28;20559;-79
2024/03/08 09:35:23;;;;;;;26.60;24.47;;;7.10;22.10;;;;;;4995763;28;20206;-81
2024/03/08 09:37:51;;;;;;;28.00;26.00;;;7.10;22.10;;;;;;4996457;28;20182;-78
2024/03/08 09:40:19;;;;;;;25.90;23.97;;;7.00;22.00;;;;;;4994934;28;20206;-80
2024/03/08 09:42:47;;;;;;;25.10;23.20;;;7.10;22.10;;;;;;4996433;28;20444;-80
2024/03/08 09:45:15;;;;;;;26.53;24.43;;;7.20;22.70;;;;;;4997352;28;20830;-80
2024/03/08 09:47:54;;;;;;;25.23;23.23;;;7.20;22.10;;;;;;4996275;28;20437;-80
2024/03/08 09:53:19;;;;;;;25.90;23.80;;;7.50;22.00;;;;;;4996376;28;20524;-79
2024/03/08 09:55:45;;;;;;;24.27;22.47;;;7.40;22.30;;;;;;4996797;28;20428;-81
2024/03/08 10:00:47;;;;;;;25.40;23.43;;;7.50;21.30;;;;;;4989726;28;20202;-80
2024/03/08 10:03:14;;;;;;;26.23;24.27;;;7.60;21.10;;;;;;4996570;28;20420;-80
2024/03/08 10:05:40;;;;;;;26.53;24.47;;;7.80;20.90;;;;;;4997465;28;20461;-80
2024/03/08 10:08:06;;;;;;;25.93;24.00;;;7.90;20.80;;;;;;4996179;28;20512;-80
2024/03/08 10:10:34;;;;;;;25.60;23.60;;;7.70;20.70;;;;;;4999093;28;20452;-80
2024/03/08 10:13:00;;;;;;;24.13;22.23;;;7.80;20.70;;;;;;4988016;28;20449;-80
2024/03/08 10:15:29;;;;;;;26.20;24.20;;;7.80;21.40;;;;;;4997019;28;20480;-81
2024/03/08 10:17:57;;;;;;;25.77;23.57;;;7.80;20.70;;;;;;4999415;28;20420;-80
2024/03/08 10:20:23;;;;;;;25.10;23.30;;;7.80;20.70;;;;;;4995759;28;20900;-81
2024/03/08 10:22:49;;;;;;;24.77;22.87;;;7.80;21.30;;;;;;4995604;28;20440;-79
2024/03/08 10:25:17;;;;;;;24.37;22.67;;;7.80;20.70;;;;;;4996411;28;20976;-81
2024/03/08 10:27:43;;;;;;;24.17;22.57;;;7.70;20.90;;;;;;4996023;28;20429;-80
2024/03/08 10:30:15;;;;;;;23.77;21.97;;;7.70;21.20;;;;;;4995364;28;20433;-81
2024/03/08 10:32:41;;;;;;;23.67;21.87;;;7.70;21.20;;;;;;4996197;28;20178;-80
2024/03/08 10:35:12;;;;;;;25.80;23.80;;;7.60;21.20;;;;;;4996055;28;20900;-80
2024/03/08 10:37:47;;;;;;;23.90;21.83;;;7.50;21.30;;;;;;4994802;28;20725;-81
2024/03/08 10:40:18;;;;;;;24.80;22.80;;;7.50;21.40;;;;;;5006737;28;20810;-79
2024/03/08 10:42:58;;;;;;;23.33;21.55;;;7.60;21.30;;;;;;4994568;28;20908;-78
2024/03/08 10:45:36;;;;;;;23.97;22.07;;;7.60;21.50;;;;;;4996731;28;20201;-79
2024/03/08 10:48:31;;;;;;;23.70;21.90;;;7.60;21.70;;;;;;5003847;28;20928;-81
2024/03/08 10:50:58;;;;;;;23.43;21.60;;;7.80;21.50;;;;;;4994987;28;20435;-81
2024/03/08 10:53:27;;;;;;;24.10;22.30;;;7.80;21.50;;;;;;4995616;28;20459;-79
2024/03/08 10:55:53;;;;;;;25.07;23.00;;;7.90;20.90;;;;;;4994103;28;20448;-80
2024/03/08 10:58:26;;;;;;;23.17;21.47;;;7.90;20.70;;;;;;4994330;28;20441;-79
2024/03/08 11:00:53;;;;;;;24.23;22.43;;;7.80;21.10;;;;;;4994695;28;20810;-79
2024/03/08 11:03:41;;;;;;;27.03;25.03;;;7.80;21.10;;;;;;4993337;28;20539;-77
2024/03/08 11:06:09;;;;;;;23.97;22.07;;;7.70;21.50;;;;;;4985558;28;20480;-78
2024/03/08 11:08:36;;;;;;;23.33;21.63;;;7.80;20.90;;;;;;4992188;28;20814;-78
2024/03/08 11:11:02;;;;;;;24.40;22.67;;;8.00;20.80;;;;;;4988750;28;20424;-78
2024/03/08 11:13:35;;;;;;;24.33;22.60;;;8.00;20.90;;;;;;4996928;28;20420;-79
2024/03/08 11:16:01;;;;;;;23.73;21.93;;;8.10;20.50;;;;;;4997545;28;20500;-81
2024/03/08 11:18:27;;;;;;;24.10;22.13;;;8.20;20.30;;;;;;4999147;28;20969;-80
2024/03/08 11:20:55;;;;;;;24.70;22.67;;;8.20;21.00;;;;;;4998853;28;20491;-79
2024/03/08 11:23:25;;;;;;;23.27;21.50;;;8.10;20.10;;;;;;4997177;28;20202;-80
2024/03/08 11:25:52;;;;;;;24.93;23.03;;;8.20;20.30;;;;;;4999161;28;20971;-78
2024/03/08 11:28:24;;;;;;;24.77;22.87;;;8.30;19.90;;;;;;4998560;28;20441;-81
2024/03/08 11:31:01;;;;;;;28.23;25.87;;;8.30;19.80;;;;;;4996561;28;20859;-80
2024/03/08 11:33:28;;;;;;;25.10;23.20;;;8.30;20.00;;;;;;4995266;28;20445;-79
2024/03/08 11:36:16;;;;;;;22.40;20.73;;;8.30;19.80;;;;;;4996383;28;20413;-80
2024/03/08 11:38:48;;;;;;;25.87;23.77;;;8.40;20.40;;;;;;4997871;28;20453;-79
2024/03/08 11:41:17;;;;;;;24.63;22.87;;;8.40;19.80;;;;;;4997642;28;20452;-79
2024/03/08 11:43:44;;;;;;;24.17;22.23;;;8.50;20.10;;;;;;4993492;28;20437;-80
2024/03/08 11:46:12;;;;;;;25.97;23.80;;;8.60;19.60;;;;;;4998237;28;20463;-80
2024/03/08 11:48:44;;;;;;;24.57;22.77;;;8.70;19.70;;;;;;4998905;28;20494;-82
2024/03/08 11:51:14;;;;;;;22.90;21.33;;;8.70;19.40;;;;;;4990903;28;20445;-79
2024/03/08 11:53:41;;;;;;;24.50;22.80;;;8.70;19.30;;;;;;4996971;28;20471;-81
2024/03/08 11:56:12;;;;;;;23.50;21.80;;;8.80;20.20;;;;;;4996528;28;20502;-80
2024/03/08 11:58:38;;;;;;;24.33;22.57;;;8.90;19.10;;;;;;4996120;28;20433;-81
2024/03/08 12:01:13;;;;;;;24.87;22.43;;;8.90;18.70;;;;;;4996146;28;20533;-80
2024/03/08 12:03:39;;;;;;;26.10;24.10;;;9.00;18.90;;;;;;4997345;28;20550;-79
2024/03/08 12:06:05;;;;;;;25.90;23.90;;;8.80;18.70;;;;;;4996493;28;20460;-79
2024/03/08 12:08:32;;;;;;;26.47;24.50;;;8.70;19.10;;;;;;4998183;28;20575;-80
2024/03/08 12:11:00;;;;;;;26.10;24.10;;;8.80;19.20;;;;;;4998048;28;20174;-80
2024/03/08 12:13:31;;;;;;;25.33;23.30;;;8.80;18.60;;;;;;4997447;28;20429;-80
2024/03/08 12:16:05;;;;;;;26.47;24.37;;;8.90;19.00;;;;;;4996378;28;20772;-79
2024/03/08 12:18:37;;;;;;;26.67;24.47;;;8.80;19.40;;;;;;4997061;28;20464;-79
2024/03/08 12:21:22;;;;;;;25.20;23.30;;;8.70;18.80;;;;;;4996843;28;20417;-79
2024/03/08 12:23:50;;;;;;;26.13;23.93;;;8.90;19.40;;;;;;4998224;28;20472;-79
2024/03/08 12:26:42;;;;;;;26.70;24.40;;;9.00;18.60;;;;;;4997218;28;20847;-80
2024/03/08 12:29:30;;;;;;;30.50;28.03;;;9.00;18.40;;;;;;4987467;28;21235;-81
2024/03/08 12:32:11;;;;;;;26.60;24.50;;;9.00;18.20;;;;;;5004469;28;20414;-79
2024/03/08 12:34:37;;;;;;;26.33;24.33;;;8.90;18.30;;;;;;5000324;28;20432;-78
2024/03/08 12:37:02;;;;;;;25.97;23.90;;;8.90;18.90;;;;;;4998437;28;20409;-80
2024/03/08 12:39:30;;;;;;;25.37;23.37;;;8.90;18.60;;;;;;4999230;28;20260;-80
2024/03/08 12:41:56;;;;;;;25.43;23.40;;;9.00;18.10;;;;;;4996931;28;20189;-81
2024/03/08 12:44:22;;;;;;;26.40;24.40;;;9.10;18.50;;;;;;4996314;28;20957;-79
2024/03/08 12:46:48;;;;;;;27.03;25.00;;;9.20;18.50;;;;;;4995474;28;20451;-79
2024/03/08 12:49:17;;;;;;;26.63;24.50;;;9.40;18.10;;;;;;4995327;28;20310;-78
2024/03/08 12:51:46;;;;;;;26.67;24.40;;;9.40;17.90;;;;;;4995591;28;20416;-82
2024/03/08 12:54:12;;;;;;;25.87;23.77;;;9.40;17.60;;;;;;4995539;28;21077;-79
2024/03/08 12:56:39;;;;;;;26.10;24.07;;;9.60;18.30;;;;;;4995131;28;20504;-79
2024/03/08 12:59:07;;;;;;;26.13;24.13;;;9.70;17.50;;;;;;4996752;28;20444;-80
2024/03/08 13:01:33;;;;;;;24.67;22.67;;;9.70;17.30;;;;;;4996061;28;20425;-81